Time;durP1;ratioP1;P1;durP2;ratioP2;P2;SDS_P1;SDS_P2;PMS_P1;PMS_P2;Temp;Humidity;BMP_temperature;BMP_pressure;BME280_temperature;BME280_humidity;BME280_pressure;Samples;Min_cycle;Max_cycle;Signal;HPM_P1;HPM_P2
2022/04/27 00:00:21;;;;;;;41.05;38.53;;;;;;;11.13;100.00;100996.56;5005043;28;20047;-90
2022/04/27 00:02:52;;;;;;;36.75;34.42;;;;;;;11.42;100.00;100991.91;5005033;28;20053;-88
2022/04/27 00:05:24;;;;;;;37.70;34.90;;;;;;;11.17;100.00;100995.16;5006966;28;20050;-90
2022/04/27 00:07:54;;;;;;;61.13;57.17;;;;;;;11.30;100.00;100997.00;5002640;28;20053;-90
2022/04/27 00:10:21;;;;;;;54.45;50.85;;;;;;;11.08;100.00;100999.03;5003946;28;20047;-91
2022/04/27 00:12:50;;;;;;;55.45;52.00;;;;;;;11.30;100.00;101004.16;5000101;28;20092;-90
2022/04/27 00:15:20;;;;;;;54.08;50.80;;;;;;;11.34;100.00;100994.75;5000389;28;20046;-91
2022/04/27 00:17:51;;;;;;;51.10;47.90;;;;;;;10.65;100.00;100991.38;5002110;28;20046;-91
2022/04/27 00:20:18;;;;;;;45.45;42.58;;;;;;;10.96;100.00;101001.47;5001243;28;20125;-90
2022/04/27 00:22:45;;;;;;;49.47;46.33;;;;;;;11.08;100.00;100998.22;5006251;28;20065;-90
2022/04/27 00:25:12;;;;;;;51.70;48.33;;;;;;;10.91;100.00;100984.47;5009921;28;20054;-91
2022/04/27 00:27:39;;;;;;;53.75;50.17;;;;;;;11.05;100.00;100998.63;5000058;28;20058;-89
2022/04/27 00:30:07;;;;;;;69.47;65.68;;;;;;;11.02;100.00;100999.03;5005079;28;20053;-91
2022/04/27 00:32:34;;;;;;;61.25;57.85;;;;;;;10.80;100.00;100995.69;5004415;28;20049;-88
2022/04/27 00:35:06;;;;;;;55.33;51.92;;;;;;;11.02;100.00;100991.88;5004994;28;20056;-91
2022/04/27 00:37:33;;;;;;;51.10;47.70;;;;;;;11.02;100.00;100994.53;4993850;28;20571;-89
2022/04/27 00:40:06;;;;;;;36.00;33.75;;;;;;;10.90;100.00;100983.66;5003877;28;20042;-90
2022/04/27 00:42:33;;;;;;;35.00;32.58;;;;;;;10.85;100.00;100985.28;5001520;28;20463;-91
2022/04/27 00:45:00;;;;;;;30.75;28.38;;;;;;;10.47;100.00;100991.91;5006995;28;20085;-91
2022/04/27 00:47:30;;;;;;;31.33;29.10;;;;;;;10.88;100.00;100983.03;5007640;28;20045;-89
2022/04/27 00:49:58;;;;;;;32.40;30.02;;;;;;;10.97;100.00;100984.47;4999153;28;20054;-91
2022/04/27 00:52:27;;;;;;;35.78;33.20;;;;;;;10.75;100.00;100980.34;5006217;28;20058;-91
2022/04/27 00:54:59;;;;;;;34.05;31.67;;;;;;;10.17;100.00;100982.56;4998908;28;20054;-91
2022/04/27 00:57:27;;;;;;;34.38;31.63;;;;;;;10.51;100.00;100981.72;4998979;28;20050;-90
2022/04/27 00:59:56;;;;;;;35.55;33.05;;;;;;;10.77;100.00;100979.16;5000729;28;20046;-91
2022/04/27 01:02:23;;;;;;;33.20;30.60;;;;;;;10.72;100.00;100984.22;5000090;28;20093;-91
2022/04/27 01:04:50;;;;;;;31.60;29.40;;;;;;;10.59;100.00;100978.88;5000086;28;20500;-90
2022/04/27 01:07:17;;;;;;;31.98;29.65;;;;;;;10.31;100.00;100987.75;5006880;28;20046;-89
2022/04/27 01:09:45;;;;;;;29.80;27.67;;;;;;;10.69;100.00;100989.13;4998264;28;20049;-91
2022/04/27 01:12:12;;;;;;;32.03;29.55;;;;;;;10.33;100.00;100987.56;5000537;28;20051;-91
2022/04/27 01:14:43;;;;;;;32.70;30.60;;;;;;;10.58;100.00;100987.84;5000823;28;20050;-90
2022/04/27 01:17:13;;;;;;;36.55;34.05;;;;;;;10.40;100.00;100987.59;5002491;28;20077;-88
2022/04/27 01:19:42;;;;;;;32.40;30.30;;;;;;;10.11;100.00;100983.34;5002151;28;20100;-91
2022/04/27 01:22:11;;;;;;;32.60;30.08;;;;;;;10.37;100.00;100975.50;5008206;28;20050;-91
2022/04/27 01:24:38;;;;;;;31.20;28.95;;;;;;;10.07;100.00;100978.41;5004938;28;20050;-90
2022/04/27 01:27:05;;;;;;;32.72;30.30;;;;;;;10.36;100.00;100981.03;5000293;28;20046;-91
2022/04/27 01:29:32;;;;;;;28.95;26.63;;;;;;;9.72;100.00;100988.19;5003620;28;20057;-91
2022/04/27 01:32:01;;;;;;;35.92;33.45;;;;;;;10.24;100.00;100976.25;4998476;28;20054;-91
2022/04/27 01:34:28;;;;;;;41.88;38.00;;;;;;;9.90;100.00;100987.72;5003983;28;20046;-91
2022/04/27 01:37:59;;;;;;;50.90;46.95;;;;;;;9.95;100.00;100990.59;5000046;28;20058;-92
2022/04/27 01:39:48;;;;;;;37.50;34.75;;;;;;;9.77;100.00;100985.81;5003249;28;20530;-89
2022/04/27 01:42:15;;;;;;;35.10;32.60;;;;;;;9.52;100.00;100976.63;5001857;28;20057;-91
2022/04/27 01:44:42;;;;;;;32.90;30.48;;;;;;;9.96;100.00;100978.97;5006848;28;20058;-89
2022/04/27 01:47:09;;;;;;;30.33;28.02;;;;;;;9.51;100.00;100980.28;5005684;28;20045;-89
2022/04/27 01:49:36;;;;;;;31.80;29.58;;;;;;;9.80;100.00;100977.44;5005720;28;20057;-92
2022/04/27 01:54:48;;;;;;;34.17;31.70;;;;;;;9.42;100.00;100982.25;5003774;28;20053;-89
2022/04/27 01:57:15;;;;;;;34.10;31.27;;;;;;;9.40;100.00;100982.44;5003770;28;20085;-91
2022/04/27 01:59:42;;;;;;;39.90;36.40;;;;;;;10.04;100.00;100977.97;5003731;28;20049;-90
2022/04/27 02:02:10;;;;;;;44.90;40.70;;;;;;;10.26;100.00;100976.06;5110030;23;20141;-89
2022/04/27 02:04:39;;;;;;;42.38;38.17;;;;;;;9.42;100.00;100984.09;5006916;28;20057;-90
2022/04/27 02:07:06;;;;;;;46.50;42.10;;;;;;;9.70;100.00;100982.25;5002137;28;20447;-89
2022/04/27 02:09:36;;;;;;;45.45;41.55;;;;;;;9.57;100.00;100988.28;5006386;28;20458;-89
2022/04/27 02:12:05;;;;;;;44.72;40.63;;;;;;;9.61;100.00;100991.38;5003363;28;20061;-90
2022/04/27 02:14:32;;;;;;;49.42;44.85;;;;;;;9.48;100.00;100984.16;5003848;28;20054;-89
2022/04/27 02:16:59;;;;;;;46.90;42.30;;;;;;;9.56;100.00;100980.53;5004975;28;20487;-89
2022/04/27 02:19:28;;;;;;;53.80;48.25;;;;;;;9.42;100.00;100995.53;5003572;28;20127;-89
2022/04/27 02:21:57;;;;;;;49.20;44.58;;;;;;;9.49;100.00;100993.72;5009783;28;20133;-89
2022/04/27 02:24:25;;;;;;;52.17;47.05;;;;;;;9.38;100.00;100997.75;5011382;28;20053;-90
2022/04/27 02:26:54;;;;;;;53.25;47.92;;;;;;;9.53;100.00;101000.31;5010255;28;20041;-90
2022/04/27 02:29:24;;;;;;;54.47;49.50;;;;;;;9.60;100.00;101003.81;5011729;28;20068;-90
2022/04/27 02:31:51;;;;;;;31.75;29.70;;;;;;;9.42;100.00;101000.00;5008996;28;20045;-90
2022/04/27 02:34:21;;;;;;;35.00;32.63;;;;;;;9.48;100.00;101005.34;5013525;28;20049;-90
2022/04/27 02:36:51;;;;;;;35.40;33.03;;;;;;;9.37;100.00;101004.03;5012591;28;20042;-90
2022/04/27 02:39:20;;;;;;;34.83;32.30;;;;;;;9.64;100.00;100999.75;5012711;28;20045;-90
2022/04/27 02:41:49;;;;;;;37.03;34.03;;;;;;;9.80;100.00;100995.19;5011067;28;20050;-89
2022/04/27 02:44:18;;;;;;;37.20;34.35;;;;;;;9.99;100.00;100997.16;5012347;28;20046;-89
2022/04/27 02:46:53;;;;;;;35.15;32.95;;;;;;;9.95;100.00;100984.47;5012567;28;20491;-89
2022/04/27 02:52:10;;;;;;;32.65;30.30;;;;;;;9.88;100.00;100994.22;5011911;28;20168;-90
2022/04/27 02:54:39;;;;;;;46.78;42.25;;;;;;;9.59;100.00;101006.66;5009373;28;20073;-88
2022/04/27 02:57:07;;;;;;;50.20;45.25;;;;;;;9.39;100.00;101015.28;5010174;28;20100;-88
2022/04/27 02:59:37;;;;;;;41.28;37.72;;;;;;;8.87;100.00;101011.09;5008609;28;20442;-89
2022/04/27 03:02:13;;;;;;;49.17;44.70;;;;;;;9.07;100.00;101021.06;5003135;28;20050;-89
2022/04/27 03:04:40;;;;;;;54.97;46.78;;;;;;;9.13;100.00;101015.84;5004928;28;20070;-88
2022/04/27 03:07:08;;;;;;;50.75;45.60;;;;;;;8.94;100.00;101014.63;5005504;28;20057;-89
2022/04/27 03:09:36;;;;;;;47.80;43.00;;;;;;;9.11;100.00;101028.47;5007579;28;20053;-89
2022/04/27 03:12:03;;;;;;;46.72;41.83;;;;;;;9.31;100.00;101027.84;5006282;28;20050;-89
2022/04/27 03:14:31;;;;;;;52.55;44.53;;;;;;;8.88;100.00;101033.94;5008510;28;20061;-89
2022/04/27 03:17:02;;;;;;;45.30;40.60;;;;;;;8.87;100.00;101031.47;5010900;28;20500;-88
2022/04/27 03:19:35;;;;;;;50.88;45.05;;;;;;;8.89;100.00;101038.22;4991809;28;20491;-89
2022/04/27 03:22:10;;;;;;;42.25;37.70;;;;;;;8.81;100.00;101037.53;5000599;28;20046;-90
2022/04/27 03:24:40;;;;;;;43.72;39.15;;;;;;;8.56;100.00;101035.16;5009358;28;20057;-88
2022/04/27 03:27:07;;;;;;;42.90;38.40;;;;;;;8.60;100.00;101046.22;5007106;28;20046;-88
2022/04/27 03:32:31;;;;;;;51.00;45.17;;;;;;;8.83;100.00;101057.50;5009661;28;20515;-89
2022/04/27 03:35:09;;;;;;;43.83;39.60;;;;;;;8.93;100.00;101067.81;5010783;28;20053;-89
2022/04/27 03:37:38;;;;;;;47.45;42.05;;;;;;;8.86;100.00;101070.38;4995521;28;20472;-92
2022/04/27 03:40:25;;;;;;;45.63;39.95;;;;;;;8.59;100.00;101071.88;5008012;28;20046;-90
2022/04/27 03:42:57;;;;;;;51.90;46.28;;;;;;;8.62;100.00;101071.53;5003940;28;20057;-90
2022/04/27 03:48:12;;;;;;;46.95;41.40;;;;;;;9.09;100.00;101096.72;5008085;28;20120;-92
2022/04/27 03:50:53;;;;;;;46.45;40.33;;;;;;;9.52;100.00;101091.47;5007247;28;20486;-91
2022/04/27 03:53:33;;;;;;;45.72;41.03;;;;;;;9.94;100.00;101096.94;4998137;28;20097;-90
2022/04/27 03:56:07;;;;;;;46.45;41.22;;;;;;;9.99;100.00;101095.34;4999398;28;20057;-91
2022/04/27 04:01:30;;;;;;;57.75;45.20;;;;;;;9.75;100.00;101101.88;5005609;28;20042;-91
2022/04/27 04:04:24;;;;;;;53.60;46.72;;;;;;;9.95;100.00;101104.69;5003260;28;20112;-91
2022/04/27 04:06:53;;;;;;;54.63;45.60;;;;;;;10.10;100.00;101104.59;4998335;28;20058;-91
2022/04/27 04:09:19;;;;;;;27.42;25.63;;;;;;;10.12;100.00;101104.41;5006886;28;20054;-89
2022/04/27 04:11:48;;;;;;;26.30;24.55;;;;;;;10.14;100.00;101108.53;4999700;28;20042;-92
2022/04/27 04:14:15;;;;;;;28.00;25.80;;;;;;;10.17;100.00;101123.25;4998579;28;20053;-90
2022/04/27 04:16:42;;;;;;;27.05;25.00;;;;;;;10.24;100.00;101110.81;5000332;28;20526;-91
2022/04/27 04:19:10;;;;;;;27.55;25.60;;;;;;;10.37;100.00;101116.25;4993830;28;20427;-91
2022/04/27 04:21:38;;;;;;;25.50;23.75;;;;;;;10.34;100.00;101119.28;5008414;28;20073;-91
2022/04/27 04:24:07;;;;;;;26.40;24.73;;;;;;;10.51;100.00;101117.16;5009175;28;20049;-90
2022/04/27 04:29:18;;;;;;;27.20;24.98;;;;;;;11.26;100.00;101117.28;5005286;28;20426;-90
2022/04/27 04:31:44;;;;;;;28.10;26.02;;;;;;;11.34;100.00;101120.53;5143561;23;20054;-90
2022/04/27 04:34:11;;;;;;;29.05;26.90;;;;;;;11.45;100.00;101116.50;5009131;28;20096;-91
2022/04/27 04:36:40;;;;;;;28.70;26.70;;;;;;;11.65;100.00;101116.53;5004009;28;20054;-90
2022/04/27 04:39:08;;;;;;;28.20;25.77;;;;;;;11.76;100.00;101107.94;5000504;28;20058;-91
2022/04/27 04:41:36;;;;;;;28.48;26.67;;;;;;;11.87;100.00;101118.00;5001277;28;20050;-91
2022/04/27 04:44:03;;;;;;;29.17;26.98;;;;;;;11.92;100.00;101109.38;5005470;28;20073;-90
2022/04/27 04:46:29;;;;;;;29.38;27.05;;;;;;;11.98;100.00;101119.25;4998736;28;20085;-91
2022/04/27 04:48:56;;;;;;;30.27;27.85;;;;;;;11.87;100.00;101117.19;5008222;28;20435;-91
2022/04/27 04:51:25;;;;;;;31.23;28.88;;;;;;;12.18;100.00;101119.22;4998801;28;20435;-91
2022/04/27 04:53:52;;;;;;;31.88;29.77;;;;;;;12.36;100.00;101118.56;5004093;28;20570;-91
2022/04/27 04:56:20;;;;;;;30.02;28.00;;;;;;;12.38;100.00;101114.69;5007150;28;20069;-91
2022/04/27 04:58:48;;;;;;;31.27;29.05;;;;;;;12.60;100.00;101111.75;5000967;28;20045;-91
2022/04/27 05:01:16;;;;;;;34.58;31.55;;;;;;;12.35;100.00;101107.09;5006610;28;20454;-91
2022/04/27 05:03:52;;;;;;;31.83;29.60;;;;;;;12.98;100.00;101111.84;5010749;28;20189;-91
2022/04/27 05:06:22;;;;;;;31.70;29.48;;;;;;;13.05;100.00;101106.47;5006321;28;20045;-90
2022/04/27 05:08:51;;;;;;;30.40;28.65;;;;;;;13.27;100.00;101107.81;5007247;28;20508;-91
2022/04/27 05:11:27;;;;;;;31.70;29.30;;;;;;;13.27;100.00;101115.81;5004244;28;20467;-92
2022/04/27 05:13:54;;;;;;;31.33;29.23;;;;;;;13.29;100.00;101116.41;4998235;28;20043;-92
2022/04/27 05:16:21;;;;;;;30.80;28.80;;;;;;;13.76;100.00;101118.75;4995407;28;20042;-90
2022/04/27 05:18:47;;;;;;;36.75;34.60;;;;;;;14.01;100.00;101109.94;5005016;28;20046;-92
2022/04/27 05:21:16;;;;;;;33.95;31.60;;;;;;;14.12;100.00;101115.38;4999925;28;20050;-90
2022/04/27 05:23:43;;;;;;;36.53;34.05;;;;;;;14.53;100.00;101113.19;5004170;28;20080;-91
2022/04/27 05:26:11;;;;;;;34.83;32.47;;;;;;;14.75;100.00;101110.88;5007521;28;20045;-90
2022/04/27 05:34:29;;;;;;;31.90;30.15;;;;;;;15.44;100.00;101111.41;5010734;28;20103;-91
2022/04/27 05:36:57;;;;;;;33.38;31.17;;;;;;;15.84;100.00;101118.84;5012460;28;20077;-90
2022/04/27 05:39:27;;;;;;;32.65;30.88;;;;;;;16.23;100.00;101115.50;5007861;28;20499;-91
2022/04/27 05:41:57;;;;;;;32.42;30.63;;;;;;;16.41;100.00;101116.44;5010413;28;20054;-91
2022/04/27 05:44:27;;;;;;;32.40;30.20;;;;;;;16.32;100.00;101115.16;4998764;28;20046;-91
2022/04/27 05:46:56;;;;;;;32.45;30.40;;;;;;;16.41;100.00;101122.59;5004803;28;20050;-91
2022/04/27 05:49:27;;;;;;;32.58;30.88;;;;;;;16.64;100.00;101124.44;5005582;28;20050;-91
2022/04/27 05:51:56;;;;;;;30.45;28.55;;;;;;;16.78;100.00;101116.16;5010312;28;20048;-91
2022/04/27 05:54:23;;;;;;;31.80;30.02;;;;;;;16.91;100.00;101116.72;5006926;28;20105;-92
2022/04/27 05:57:04;;;;;;;30.13;28.52;;;;;;;17.06;100.00;101126.09;5011820;28;20638;-91
2022/04/27 05:59:36;;;;;;;28.67;27.20;;;;;;;17.07;100.00;101119.69;5006282;28;20113;-91
2022/04/27 06:02:03;;;;;;;31.10;29.10;;;;;;;17.34;100.00;101119.91;5004098;28;20495;-92
2022/04/27 06:04:30;;;;;;;29.40;27.77;;;;;;;17.27;100.00;101119.25;5003747;28;20050;-91
2022/04/27 06:07:00;;;;;;;30.10;28.67;;;;;;;17.66;100.00;101120.19;5010862;28;20427;-90
2022/04/27 06:09:26;;;;;;;33.88;32.08;;;;;;;17.75;100.00;101121.41;4996392;28;20053;-91
2022/04/27 06:11:53;;;;;;;29.98;28.10;;;;;;;17.78;100.00;101129.03;5003802;28;20054;-91
2022/04/27 06:14:21;;;;;;;28.65;27.25;;;;;;;18.06;100.00;101127.31;5004788;28;20491;-92
2022/04/27 06:16:51;;;;;;;29.33;27.73;;;;;;;17.98;100.00;101135.81;5004038;28;20085;-91
2022/04/27 06:19:18;;;;;;;32.67;31.08;;;;;;;18.02;100.00;101140.44;5009188;28;20439;-91
2022/04/27 06:21:45;;;;;;;35.45;33.45;;;;;;;18.15;100.00;101128.53;5005800;28;20061;-92
2022/04/27 06:24:12;;;;;;;36.00;34.05;;;;;;;18.18;100.00;101137.97;5006555;28;20042;-91
2022/04/27 06:26:39;;;;;;;32.03;30.42;;;;;;;18.12;100.00;101130.88;5006466;28;20050;-91
2022/04/27 06:29:06;;;;;;;29.15;27.65;;;;;;;18.26;100.00;101141.06;5001750;28;20099;-91
2022/04/27 06:31:33;;;;;;;30.90;29.05;;;;;;;18.42;100.00;101133.22;5004274;28;20090;-91
2022/04/27 06:34:01;;;;;;;30.95;29.20;;;;;;;18.35;100.00;101141.47;5008645;28;20048;-91
2022/04/27 06:36:30;;;;;;;31.48;29.67;;;;;;;18.61;100.00;101139.09;5005355;28;20145;-91
2022/04/27 06:38:57;;;;;;;28.20;26.70;;;;;;;18.71;100.00;101133.88;5003725;28;20434;-91
2022/04/27 06:41:24;;;;;;;30.38;28.85;;;;;;;18.95;100.00;101139.84;5004714;28;20088;-92
2022/04/27 06:43:50;;;;;;;32.80;31.20;;;;;;;19.21;100.00;101133.69;5008245;28;20056;-91
2022/04/27 06:46:19;;;;;;;33.10;31.40;;;;;;;19.29;100.00;101136.97;5010073;28;20431;-91
2022/04/27 06:48:46;;;;;;;31.13;29.38;;;;;;;19.54;100.00;101139.91;5011691;28;20081;-92
2022/04/27 06:51:15;;;;;;;33.22;31.25;;;;;;;19.47;100.00;101133.13;4999097;28;20560;-91
2022/04/27 06:53:42;;;;;;;31.08;29.38;;;;;;;19.32;100.00;101137.28;5003462;28;20108;-91
2022/04/27 06:56:09;;;;;;;28.92;27.25;;;;;;;19.40;100.00;101139.53;5005992;28;20042;-91
2022/04/27 06:58:36;;;;;;;30.25;28.55;;;;;;;19.70;100.00;101142.78;5001232;28;20438;-92
2022/04/27 07:01:04;;;;;;;29.98;27.90;;;;;;;19.75;100.00;101146.31;5000968;28;20042;-91
2022/04/27 07:03:33;;;;;;;29.50;27.80;;;;;;;20.09;100.00;101154.97;5004570;28;20137;-91
2022/04/27 07:06:00;;;;;;;29.27;27.65;;;;;;;19.85;100.00;101151.81;5008523;28;20062;-92
2022/04/27 07:08:29;;;;;;;30.67;28.65;;;;;;;20.06;100.00;101154.66;5007928;28;20068;-92
2022/04/27 07:10:56;;;;;;;30.55;28.67;;;;;;;20.30;100.00;101152.41;5004319;28;20068;-92
2022/04/27 07:13:23;;;;;;;30.25;28.33;;;;;;;20.03;100.00;101150.63;5001826;28;20111;-91
2022/04/27 07:15:50;;;;;;;31.45;29.80;;;;;;;19.96;100.00;101150.00;5001416;28;20097;-91
2022/04/27 07:18:17;;;;;;;32.42;30.73;;;;;;;20.02;100.00;101154.38;5004874;28;20049;-90
2022/04/27 07:20:44;;;;;;;35.75;34.03;;;;;;;20.80;100.00;101162.69;5005598;28;20552;-92
2022/04/27 07:23:10;;;;;;;30.65;29.02;;;;;;;20.70;100.00;101159.16;5006574;28;20041;-92
2022/04/27 07:25:40;;;;;;;34.25;32.65;;;;;;;19.74;100.00;101158.19;5009545;28;20129;-91
2022/04/27 07:28:07;;;;;;;34.08;31.92;;;;;;;20.41;100.00;101164.88;5000597;28;20050;-91
2022/04/27 07:30:34;;;;;;;33.55;31.85;;;;;;;20.34;100.00;101154.31;5006550;28;20047;-92
2022/04/27 07:33:01;;;;;;;34.85;32.85;;;;;;;20.67;100.00;101154.28;5007121;28;20094;-91
2022/04/27 07:35:28;;;;;;;33.78;32.08;;;;;;;20.07;100.00;101164.38;5001616;28;20049;-92
2022/04/27 07:37:54;;;;;;;36.17;34.17;;;;;;;20.10;100.00;101161.97;5002878;28;20038;-91
2022/04/27 07:40:21;;;;;;;31.42;29.73;;;;;;;20.25;100.00;101155.06;5004831;28;20069;-91
2022/04/27 07:42:50;;;;;;;32.33;30.65;;;;;;;20.99;100.00;101163.03;4994607;28;20046;-90
2022/04/27 07:45:17;;;;;;;30.00;28.42;;;;;;;20.93;100.00;101149.78;5009124;28;20121;-93
2022/04/27 07:47:45;;;;;;;30.60;29.00;;;;;;;21.19;100.00;101146.09;5008912;28;20060;-92
2022/04/27 07:50:14;;;;;;;29.05;27.17;;;;;;;21.67;100.00;101148.63;4999099;28;20039;-92
2022/04/27 07:52:41;;;;;;;27.92;26.15;;;;;;;21.39;100.00;101163.44;5003095;28;20053;-91
2022/04/27 07:55:09;;;;;;;29.27;27.63;;;;;;;20.63;100.00;101158.56;5000315;28;20549;-91
2022/04/27 07:57:36;;;;;;;29.38;27.88;;;;;;;21.42;100.00;101152.94;5001526;28;20050;-91
2022/04/27 08:00:07;;;;;;;27.45;26.00;;;;;;;20.56;100.00;101150.69;5002256;28;20050;-91
2022/04/27 08:02:37;;;;;;;29.73;28.00;;;;;;;21.54;100.00;101151.84;4998290;28;20054;-91
2022/04/27 08:05:04;;;;;;;28.80;27.20;;;;;;;20.28;100.00;101141.06;5005354;28;20305;-91
2022/04/27 08:07:36;;;;;;;29.75;28.08;;;;;;;19.81;100.00;101141.78;5001461;28;20054;-92
2022/04/27 08:10:10;;;;;;;29.58;28.10;;;;;;;20.71;100.00;101139.97;5001747;28;20042;-91
2022/04/27 08:12:37;;;;;;;28.10;26.45;;;;;;;20.20;100.00;101136.97;5001080;28;20489;-91
2022/04/27 08:15:06;;;;;;;29.35;27.75;;;;;;;21.60;100.00;101139.97;4999763;28;20522;-91
2022/04/27 08:17:33;;;;;;;28.48;26.92;;;;;;;21.82;100.00;101132.41;5001576;28;20053;-91
2022/04/27 08:22:44;;;;;;;29.67;27.73;;;;;;;20.92;100.00;101140.06;5006338;28;20108;-91
2022/04/27 08:25:11;;;;;;;32.35;30.55;;;;;;;22.05;100.00;101122.91;5005034;28;20053;-91
2022/04/27 08:27:40;;;;;;;30.85;29.02;;;;;;;22.53;100.00;101134.19;5001411;28;20077;-92
2022/04/27 08:30:10;;;;;;;27.63;25.83;;;;;;;21.01;100.00;101139.28;5001484;28;20466;-91
2022/04/27 08:32:37;;;;;;;27.83;26.20;;;;;;;21.73;100.00;101121.31;4999804;28;20137;-91
2022/04/27 08:35:03;;;;;;;30.83;28.90;;;;;;;22.11;100.00;101126.41;5003042;28;20049;-91
2022/04/27 08:37:31;;;;;;;29.48;27.88;;;;;;;21.43;100.00;101126.72;5006948;28;20133;-91
2022/04/27 08:40:01;;;;;;;27.00;25.63;;;;;;;22.15;100.00;101125.63;5005455;28;20129;-91
2022/04/27 09:22:03;;;;;;;38.83;36.83;;;;;;;23.35;99.49;101071.47;5020464;28;20041;-90
2022/04/27 09:24:47;;;;;;;37.65;35.47;;;;;;;23.69;97.69;101074.22;5027908;28;20046;-91
2022/04/27 09:27:18;;;;;;;29.55;27.65;;;;;;;23.96;94.57;101070.16;5026260;28;20077;-92
2022/04/27 09:29:55;;;;;;;29.67;28.00;;;;;;;23.07;100.00;101075.75;5021468;28;20140;-92
2022/04/27 09:32:24;;;;;;;28.65;27.20;;;;;;;22.31;100.00;101074.19;5025465;28;20077;-91
2022/04/27 09:34:53;;;;;;;29.35;27.50;;;;;;;23.09;93.43;101068.16;5024456;28;20096;-92
2022/04/27 09:37:21;;;;;;;29.85;28.25;;;;;;;21.05;99.10;101062.06;5024019;28;20048;-90
2022/04/27 09:40:01;;;;;;;31.52;29.85;;;;;;;22.33;100.00;101059.31;5016830;28;20065;-91
2022/04/27 09:42:31;;;;;;;31.83;30.13;;;;;;;23.62;99.96;101045.78;5022665;28;20046;-90
2022/04/27 09:45:14;;;;;;;30.45;28.65;;;;;;;24.45;86.36;101048.19;5022060;28;20052;-91
2022/04/27 09:47:46;;;;;;;29.58;28.17;;;;;;;22.72;84.18;101055.88;5018430;28;20050;-91
2022/04/27 09:50:14;;;;;;;29.53;27.73;;;;;;;24.28;79.27;101044.31;5020372;28;20069;-92
2022/04/27 09:52:44;;;;;;;29.85;28.08;;;;;;;24.38;82.94;101044.19;5022480;28;20311;-92
2022/04/27 09:55:11;;;;;;;29.40;27.65;;;;;;;25.16;74.17;101048.31;5025161;28;20104;-91
2022/04/27 09:57:41;;;;;;;30.83;29.13;;;;;;;25.37;67.54;101040.63;5018887;28;20574;-91
2022/04/27 10:00:17;;;;;;;29.63;27.77;;;;;;;23.83;74.94;101039.09;5020422;28;20037;-91
2022/04/27 10:02:46;;;;;;;28.98;27.05;;;;;;;23.57;84.60;101040.41;5015207;28;20054;-91
2022/04/27 10:05:15;;;;;;;30.30;28.80;;;;;;;25.31;71.51;101034.47;5024369;28;20048;-91
2022/04/27 10:07:43;;;;;;;30.05;28.35;;;;;;;25.51;72.94;101027.88;5020235;28;20506;-92
2022/04/27 10:10:17;;;;;;;32.28;30.20;;;;;;;25.45;57.61;101037.25;5015022;28;20060;-91
2022/04/27 10:12:44;;;;;;;32.22;30.50;;;;;;;25.24;59.03;101036.78;5022986;28;20053;-91
2022/04/27 10:15:11;;;;;;;34.17;32.40;;;;;;;26.27;51.70;101033.00;5031904;28;20477;-92
2022/04/27 10:17:39;;;;;;;33.10;31.35;;;;;;;25.65;54.99;101022.47;5021956;28;20054;-91
2022/04/27 10:20:29;;;;;;;33.72;31.75;;;;;;;25.24;54.83;101038.69;5025123;28;20038;-91
2022/04/27 10:23:20;;;;;;;33.40;31.67;;;;;;;25.17;51.80;101035.53;5023300;28;20104;-92
2022/04/27 10:26:09;;;;;;;32.67;30.67;;;;;;;25.58;49.41;101030.22;5019392;28;20046;-92
2022/04/27 10:28:38;;;;;;;33.85;31.77;;;;;;;25.52;53.73;101026.78;5026249;28;20073;-91
2022/04/27 10:31:07;;;;;;;31.10;29.08;;;;;;;26.64;47.40;101028.44;5023750;28;20061;-91
2022/04/27 10:33:42;;;;;;;31.85;30.02;;;;;;;26.81;47.24;101025.03;5025562;28;20053;-92
2022/04/27 10:36:38;;;;;;;31.15;29.10;;;;;;;27.53;48.60;101015.94;5027111;28;20498;-92
2022/04/27 10:39:25;;;;;;;34.20;32.03;;;;;;;26.19;46.71;101020.91;5019295;28;20058;-92
2022/04/27 10:42:11;;;;;;;33.20;31.10;;;;;;;25.84;44.54;101016.16;5024206;28;20049;-91
2022/04/27 10:45:10;;;;;;;31.25;29.35;;;;;;;25.56;44.31;101013.38;5022702;28;20129;-91
2022/04/27 10:47:41;;;;;;;31.30;29.23;;;;;;;25.67;47.11;101009.38;5022118;28;20045;-92
2022/04/27 10:50:33;;;;;;;32.63;30.75;;;;;;;25.06;43.99;101010.41;5019950;28;20526;-90
2022/04/27 10:53:16;;;;;;;33.25;31.35;;;;;;;25.65;45.14;101006.13;5019255;28;20050;-92
2022/04/27 10:55:47;;;;;;;32.05;30.45;;;;;;;26.24;45.18;100999.03;5025791;28;20128;-91
2022/04/27 10:58:17;;;;;;;33.33;31.17;;;;;;;27.16;41.74;101009.81;5024139;28;20404;-91
2022/04/27 11:01:26;;;;;;;34.60;32.70;;;;;;;26.26;40.42;100999.53;5027377;28;20054;-92
2022/04/27 11:04:12;;;;;;;31.55;29.75;;;;;;;26.07;44.97;100998.84;5031841;28;20569;-91
2022/04/27 11:07:17;;;;;;;30.75;28.85;;;;;;;26.73;40.23;101004.81;5025651;28;20064;-91
2022/04/27 11:10:09;;;;;;;30.10;28.20;;;;;;;26.13;44.81;100994.09;5019680;28;20050;-90
2022/04/27 11:12:36;;;;;;;30.25;28.08;;;;;;;27.12;38.48;101000.63;5026521;28;20092;-91
2022/04/27 11:15:05;;;;;;;29.45;27.67;;;;;;;26.72;36.66;100992.31;5023337;28;20085;-91
2022/04/27 11:17:34;;;;;;;30.27;28.10;;;;;;;26.92;37.87;100993.72;5022235;28;20046;-92
2022/04/27 11:20:02;;;;;;;31.13;29.23;;;;;;;27.11;37.08;100988.09;5027233;28;20080;-91
2022/04/27 11:22:38;;;;;;;32.17;30.25;;;;;;;26.89;40.38;100997.88;5025812;28;20054;-92
2022/04/27 11:25:08;;;;;;;31.52;29.67;;;;;;;26.54;40.50;100987.78;5032023;28;20136;-91
2022/04/27 11:27:36;;;;;;;30.58;28.70;;;;;;;27.43;37.93;100983.50;5025580;28;20050;-91
2022/04/27 11:30:06;;;;;;;29.23;27.08;;;;;;;27.81;37.19;100978.41;5026640;28;20048;-92
2022/04/27 11:32:34;;;;;;;30.48;28.33;;;;;;;26.91;38.68;100973.84;5027819;28;20045;-91
2022/04/27 11:35:01;;;;;;;30.17;28.38;;;;;;;26.07;39.81;100984.44;5028202;28;20049;-91
2022/04/27 11:37:30;;;;;;;30.85;28.98;;;;;;;26.44;43.23;100976.00;5030455;28;20057;-91
2022/04/27 11:40:13;;;;;;;28.40;26.50;;;;;;;26.92;37.64;100967.28;5026813;28;20046;-91
2022/04/27 11:42:46;;;;;;;27.58;25.50;;;;;;;27.51;36.64;100969.91;5023270;28;20104;-91
2022/04/27 11:45:13;;;;;;;28.63;26.55;;;;;;;26.91;35.43;100964.88;5026418;28;20104;-92
2022/04/27 11:47:40;;;;;;;28.08;26.05;;;;;;;26.59;39.15;100963.97;5028897;28;20045;-92
2022/04/27 11:50:08;;;;;;;29.48;27.75;;;;;;;27.02;40.63;100958.06;5022984;28;20054;-91
2022/04/27 11:52:37;;;;;;;29.23;27.35;;;;;;;27.00;38.73;100957.56;5022507;28;20060;-90
2022/04/27 11:55:14;;;;;;;31.15;29.27;;;;;;;26.76;42.32;100959.81;5024688;28;20049;-91
2022/04/27 11:57:43;;;;;;;29.85;27.95;;;;;;;27.09;39.88;100946.72;5024643;28;20049;-90
2022/04/27 12:00:20;;;;;;;28.88;26.88;;;;;;;26.92;38.83;100940.03;5019526;28;20126;-90
2022/04/27 12:02:48;;;;;;;28.95;26.70;;;;;;;27.31;37.74;100935.00;5022561;28;20042;-92
2022/04/27 12:05:15;;;;;;;29.60;27.70;;;;;;;26.91;37.35;100937.63;5027700;28;20041;-92
2022/04/27 12:07:49;;;;;;;29.88;27.88;;;;;;;26.14;40.62;100939.34;5024491;28;20420;-92
2022/04/27 12:10:17;;;;;;;29.42;27.60;;;;;;;26.65;42.38;100937.44;5019793;28;20045;-90
2022/04/27 12:12:44;;;;;;;30.75;28.77;;;;;;;27.29;36.92;100937.22;5024346;28;20046;-91
2022/04/27 12:15:13;;;;;;;29.77;27.98;;;;;;;26.15;42.61;100940.19;5030915;28;20038;-92
2022/04/27 12:17:48;;;;;;;33.17;31.10;;;;;;;26.88;40.50;100925.41;5026904;28;20060;-92
2022/04/27 12:20:37;;;;;;;32.95;30.90;;;;;;;27.17;38.17;100927.72;5030800;28;20053;-90
2022/04/27 12:23:09;;;;;;;30.50;28.50;;;;;;;26.73;40.07;100923.88;5032328;28;20085;-91